Clearwater, FL

5:15 AM EDT on September 17, 2014 (GMT -0400)
Whitted | Change Station
CLOSE
Current Station
Airport
Location: St. Petersburg,
Elevation: 7 ft
Nearby Weather Stations

Elev 7 ft 27.77 °N, 82.63 °W | Updated 22 minutes ago

Mostly Cloudy
Mostly Cloudy
78 °F
Feels Like 78 °F
N
6
Wind Variable Wind from NE

Today
High -- | Low -- °F
--% Chance of Precip.
Yesterday
High -- | Low -- °F
Precip. -- in
7:17 AM 7:33 PM
Last Quarter, 37% visible
Pressure 29.91 in
Visibility 10.0 miles
Clouds Mostly Cloudy 2600 ft
Mostly Cloudy 3100 ft
Overcast 11000 ft
Dew Point 74 °F
Humidity 87%
Rainfall 0.00 in
Snow Depth Not available.
UV 0 out of 12
Pollen 6.70 out of 12
Air Quality Not available.
Flu Activity Not available.
METAR KSPG 170853Z AUTO 04005KT 10SM BKN026 BKN031 OVC110 26/23 A2991 RMK AO2 SLP129 60000 T02560233 56014

More Conditions Fewer Conditions

Pressure 29.91 in
Visibility 10.0 miles
Clouds Mostly Cloudy 2600 ft
Mostly Cloudy 3100 ft
Overcast 11000 ft
Dew Point 74 °F
Humidity 87%
Rainfall 0.00 in
Snow Depth Not available.
UV 0 out of 12
Pollen 6.70 out of 12
Air Quality Not available.
Flu Activity Not available.
METAR KSPG 170853Z AUTO 04005KT 10SM BKN026 BKN031 OVC110 26/23 A2991 RMK AO2 SLP129 60000 T02560233 56014

More Conditions Fewer Conditions

10-Day Weather Forecast

Almanac

Astronomy

Sep. 17, 2014 Rise Set
Actual Time 7:17 AM EDT 7:33 PM EDT
Civil Twilight 6:53 AM EDT 7:56 PM EDT
Nautical Twilight 6:26 AM EDT 8:24 PM EDT
Astronomical Twilight 5:58 AM EDT 8:51 PM EDT
Moon 1:37 AM EDT 3:21 PM EDT
Length of Visible Light 13h 03m
Length of Day
12h 16m
Tomorrow will be 1m 39s shorter.
Last Quarter, 37% of the Moon is Illuminated
Today
Last Quarter
Sep 24
New
Oct 1
First Quarter
Oct 8
Full
Oct 15
Last Quarter

Today's Extremes

State Highs State Lows

Community

WunderPhotos

Upload Photos

1,753,991 photos uploaded!

Nearby

Air Quality

  Air Quality AQ Index Pollutant
Wednesday Moderate
PM2.5
Wednesday Good
OZONE

Snow Depth

Station Depth Elevation
No new snow has been reported.

Earthquake Activity

City Distance Mag. Time & Date
No recent earthquake activity has been reported nearby.
Minimum magnitude displayed is 2.5.

Coastal Water Temperatures

Place Temperature
Port Manatee, FL 84.0 °F
St Petersburg, FL 87.1 °F
Old Port Tampa, FL 84.9 °F

Nearby Weather Stations